Time;durP1;ratioP1;P1;durP2;ratioP2;P2;SDS_P1;SDS_P2;PMS_P1;PMS_P2;Temp;Humidity;BMP_temperature;BMP_pressure;BME280_temperature;BME280_humidity;BME280_pressure;Samples;Min_cycle;Max_cycle;Signal;HPM_P1;HPM_P2
2022/03/24 00:01:27;;;;;;;147.05;53.20;;;;;;;1.32;68.50;100398.70;1787605;80;21002;-69
2022/03/24 00:03:56;;;;;;;130.22;48.10;;;;;;;1.29;68.51;100398.70;1787558;80;20949;-68
2022/03/24 00:06:23;;;;;;;139.88;51.50;;;;;;;1.23;68.73;100388.28;1787643;80;21092;-68
2022/03/24 00:08:50;;;;;;;120.22;48.52;;;;;;;1.16;69.29;100381.33;1787574;80;21017;-68
2022/03/24 00:11:17;;;;;;;103.58;42.58;;;;;;;1.16;69.29;100381.33;1787892;80;21061;-69
2022/03/24 00:13:45;;;;;;;92.92;39.45;;;;;;;1.16;69.22;100381.33;1787516;80;21533;-68
2022/03/24 00:16:12;;;;;;;74.87;35.00;;;;;;;1.11;69.75;100370.06;1787651;80;22000;-67
2022/03/24 00:18:40;;;;;;;94.80;39.80;;;;;;;1.11;69.75;100370.06;1787502;80;20973;-69
2022/03/24 00:21:08;;;;;;;84.20;37.65;;;;;;;1.08;70.08;100372.63;1787410;80;20998;-68
2022/03/24 00:23:36;;;;;;;73.12;32.70;;;;;;;1.07;70.03;100368.31;1787746;80;21072;-67
2022/03/24 00:26:03;;;;;;;76.97;35.20;;;;;;;1.02;70.36;100363.95;1787577;80;21040;-68
2022/03/24 00:28:34;;;;;;;74.90;35.40;;;;;;;1.00;70.61;100358.33;1787781;80;21251;-69
2022/03/24 00:31:01;;;;;;;93.07;43.05;;;;;;;0.99;71.16;100356.17;1787633;80;21036;-68
2022/03/24 00:33:29;;;;;;;94.30;42.15;;;;;;;0.96;71.26;100350.95;1787810;80;21017;-68
2022/03/24 00:35:56;;;;;;;90.40;41.33;;;;;;;0.94;71.27;100344.88;1787604;80;21036;-68
2022/03/24 00:38:23;;;;;;;90.42;44.00;;;;;;;0.91;71.62;100344.02;1787651;80;21044;-68
2022/03/24 00:40:51;;;;;;;88.95;41.92;;;;;;;0.89;71.77;100340.54;1787635;80;21146;-68
2022/03/24 00:43:18;;;;;;;92.62;43.58;;;;;;;0.86;71.97;100340.09;1762994;80;21565;-68
2022/03/24 00:45:45;;;;;;;89.80;40.75;;;;;;;0.83;72.07;100334.47;1758773;81;21578;-68
2022/03/24 00:48:11;;;;;;;96.32;39.33;;;;;;;0.81;71.94;100328.84;1758713;81;20998;-68
2022/03/24 00:50:38;;;;;;;105.07;41.15;;;;;;;0.78;71.95;100324.91;1758845;81;21603;-69
2022/03/24 00:53:05;;;;;;;83.65;35.28;;;;;;;0.77;72.14;100317.56;1758876;81;21237;-69
2022/03/24 00:55:34;;;;;;;74.85;36.03;;;;;;;0.74;72.25;100312.81;1758722;81;21049;-69
2022/03/24 00:58:01;;;;;;;68.87;32.88;;;;;;;0.75;72.54;100319.72;1760231;81;21053;-69
2022/03/24 01:00:28;;;;;;;70.97;33.25;;;;;;;0.71;72.46;100307.59;1761893;81;22280;-69
2022/03/24 01:02:56;;;;;;;72.90;34.03;;;;;;;0.70;72.36;100308.46;1762069;81;21097;-68
2022/03/24 01:05:23;;;;;;;77.53;35.50;;;;;;;0.68;72.70;100298.52;1761914;81;21223;-67
2022/03/24 01:07:50;;;;;;;71.70;36.17;;;;;;;0.65;72.65;100294.18;1761857;81;21046;-69
2022/03/24 01:10:19;;;;;;;85.53;38.30;;;;;;;0.62;73.00;100288.55;1761548;80;21077;-68
2022/03/24 01:12:47;;;;;;;75.95;36.53;;;;;;;0.59;72.89;100285.92;1761496;81;21090;-68
2022/03/24 01:15:18;;;;;;;88.80;39.25;;;;;;;0.57;72.85;100281.16;1761340;81;21097;-68
2022/03/24 01:17:45;;;;;;;88.70;36.75;;;;;;;0.55;73.00;100279.02;1761655;81;21153;-67
2022/03/24 01:20:12;;;;;;;81.02;37.10;;;;;;;0.52;73.29;100269.90;1761203;81;21050;-68
2022/03/24 01:22:39;;;;;;;80.85;37.98;;;;;;;0.50;73.61;100272.05;1761403;81;21093;-68
2022/03/24 01:25:07;;;;;;;92.30;40.73;;;;;;;0.49;73.69;100271.19;1761448;81;21098;-68
2022/03/24 01:27:34;;;;;;;89.77;40.90;;;;;;;0.47;73.70;100268.16;1761362;81;21594;-68
2022/03/24 01:30:03;;;;;;;92.92;40.15;;;;;;;0.45;73.57;100269.42;1761640;81;21250;-68
2022/03/24 01:32:30;;;;;;;100.33;42.95;;;;;;;0.42;73.64;100269.42;1761474;81;21668;-68
2022/03/24 01:34:56;;;;;;;92.67;40.03;;;;;;;0.40;73.47;100272.42;1761553;81;21035;-68
2022/03/24 01:37:23;;;;;;;102.72;46.83;;;;;;;0.37;73.60;100265.94;1761545;81;21054;-68
2022/03/24 01:39:51;;;;;;;99.87;45.43;;;;;;;0.34;74.12;100261.58;1761412;81;21026;-68
2022/03/24 01:42:19;;;;;;;88.55;41.23;;;;;;;0.36;74.36;100252.09;1761518;81;21620;-68
2022/03/24 01:44:48;;;;;;;97.82;44.23;;;;;;;0.32;74.60;100239.11;1761431;81;21002;-68
2022/03/24 01:47:16;;;;;;;106.37;47.70;;;;;;;0.29;74.64;100236.52;1760990;81;21090;-68
2022/03/24 01:49:50;;;;;;;108.25;52.00;;;;;;;0.26;74.65;100230.03;1750375;81;21537;-68
2022/03/24 01:52:18;;;;;;;118.13;55.12;;;;;;;0.22;74.96;100221.79;1731245;82;21058;-69
2022/03/24 01:54:48;;;;;;;95.83;43.78;;;;;;;0.23;75.23;100217.03;1731153;82;21902;-70
2022/03/24 01:57:16;;;;;;;105.30;47.23;;;;;;;0.22;75.59;100216.61;1731160;82;21192;-69
2022/03/24 01:59:42;;;;;;;103.58;50.90;;;;;;;0.22;75.97;100216.17;1706010;82;21105;-68
2022/03/24 02:02:11;;;;;;;108.85;49.15;;;;;;;0.22;75.94;100209.70;1731171;82;21058;-68
2022/03/24 02:04:38;;;;;;;107.15;51.55;;;;;;;0.19;76.03;100210.55;1731137;82;21093;-68
2022/03/24 02:07:08;;;;;;;114.37;53.33;;;;;;;0.18;76.27;100203.66;1731289;81;21249;-70
2022/03/24 02:09:37;;;;;;;114.42;52.85;;;;;;;0.16;76.42;100201.48;1731092;82;21676;-68
2022/03/24 02:12:10;;;;;;;108.75;52.78;;;;;;;0.15;76.44;100201.02;1731153;82;21062;-68
2022/03/24 02:14:40;;;;;;;115.75;56.68;;;;;;;0.13;76.58;100192.37;1731198;82;21046;-69
2022/03/24 02:17:07;;;;;;;112.25;56.80;;;;;;;0.12;76.57;100193.24;1697214;82;21054;-68
2022/03/24 02:19:36;;;;;;;121.90;55.85;;;;;;;0.09;76.36;100189.34;1730942;82;21026;-68
2022/03/24 02:22:14;;;;;;;110.35;49.18;;;;;;;0.07;76.18;100188.47;1730989;82;21066;-69
2022/03/24 02:24:42;;;;;;;86.30;42.35;;;;;;;0.05;76.41;100195.36;1731070;82;21081;-67
2022/03/24 02:27:11;;;;;;;90.90;43.70;;;;;;;0.04;76.51;100192.75;1731056;82;21053;-68
2022/03/24 02:29:38;;;;;;;95.38;44.80;;;;;;;0.02;76.79;100183.66;1731253;82;21097;-68
2022/03/24 02:32:08;;;;;;;108.72;50.92;;;;;;;0.02;76.96;100188.84;1731074;82;21246;-67
2022/03/24 02:34:47;;;;;;;87.67;42.20;;;;;;;0.00;77.00;100186.70;1731300;82;21090;-67
2022/03/24 02:37:14;;;;;;;127.12;59.10;;;;;;;-0.02;76.90;100185.81;1730870;82;21614;-68
2022/03/24 02:39:45;;;;;;;121.45;58.63;;;;;;;-0.01;77.10;100186.24;1731072;82;21077;-68
2022/03/24 02:42:15;;;;;;;126.15;59.23;;;;;;;-0.02;77.24;100194.45;1731102;82;21085;-68
2022/03/24 02:44:46;;;;;;;138.50;59.98;;;;;;;-0.06;77.07;100187.50;1731174;82;21130;-69
2022/03/24 02:47:14;;;;;;;136.52;61.88;;;;;;;-0.07;76.79;100190.07;1730948;82;21101;-68
2022/03/24 02:49:42;;;;;;;116.82;55.38;;;;;;;-0.09;76.93;100180.13;1741416;81;21467;-69
2022/03/24 02:52:09;;;;;;;134.75;62.88;;;;;;;-0.11;77.05;100169.78;1761315;81;21066;-69
2022/03/24 02:54:38;;;;;;;139.80;61.08;;;;;;;-0.13;77.53;100168.05;1761231;81;21026;-69
2022/03/24 02:57:06;;;;;;;124.25;58.98;;;;;;;-0.13;78.06;100166.75;1761622;81;21097;-69
2022/03/24 02:59:33;;;;;;;122.37;58.87;;;;;;;-0.14;78.10;100160.68;1748310;81;21033;-68
2022/03/24 03:02:05;;;;;;;122.25;60.58;;;;;;;-0.14;78.16;100175.36;1745222;82;21069;-69
2022/03/24 03:04:32;;;;;;;122.58;53.87;;;;;;;-0.16;78.43;100168.00;1745207;82;21046;-68
2022/03/24 03:07:02;;;;;;;116.30;54.10;;;;;;;-0.16;78.42;100173.18;1745395;82;21112;-68
2022/03/24 03:09:31;;;;;;;124.40;61.63;;;;;;;-0.15;78.69;100168.45;1745215;82;22091;-69
2022/03/24 03:12:00;;;;;;;159.43;75.42;;;;;;;-0.15;78.72;100169.75;1745123;81;21050;-68
2022/03/24 03:14:30;;;;;;;165.65;79.67;;;;;;;-0.16;78.82;100162.83;1745206;82;21066;-67
2022/03/24 03:16:58;;;;;;;175.80;82.62;;;;;;;-0.16;78.95;100161.53;1744837;82;21565;-68
2022/03/24 03:19:26;;;;;;;197.35;90.97;;;;;;;-0.13;79.28;100157.69;1745174;82;21085;-68
2022/03/24 03:21:54;;;;;;;195.20;92.10;;;;;;;-0.07;79.20;100152.53;1745048;82;21006;-68
2022/03/24 03:24:22;;;;;;;185.20;88.90;;;;;;;0.01;79.03;100150.88;1745115;82;22145;-68
2022/03/24 03:26:55;;;;;;;184.55;87.80;;;;;;;0.09;78.96;100147.92;1744895;82;21068;-68
2022/03/24 03:29:24;;;;;;;203.62;91.02;;;;;;;0.16;78.84;100143.20;1745403;82;21065;-68
2022/03/24 03:31:53;;;;;;;199.50;89.47;;;;;;;0.25;78.24;100146.69;1745366;82;21046;-68
2022/03/24 03:34:24;;;;;;;178.05;84.20;;;;;;;0.28;77.74;100142.40;1744995;82;21292;-67
2022/03/24 03:36:48;;;;;;;191.18;88.72;;;;;;;0.33;77.15;100143.72;1723700;82;21101;-69
2022/03/24 03:39:16;;;;;;;175.87;85.15;;;;;;;0.35;76.69;100141.56;1744908;82;21086;-67
2022/03/24 03:41:42;;;;;;;157.12;75.62;;;;;;;0.38;76.43;100140.70;1744872;82;21041;-68
2022/03/24 03:44:09;;;;;;;172.45;83.30;;;;;;;0.42;76.37;100134.69;1745083;82;21029;-68
2022/03/24 03:46:36;;;;;;;163.37;75.00;;;;;;;0.46;76.23;100136.44;1744949;82;21513;-69
2022/03/24 03:49:04;;;;;;;161.10;78.62;;;;;;;0.51;76.05;100139.91;1742442;82;21049;-67
2022/03/24 03:51:32;;;;;;;150.18;71.17;;;;;;;0.55;75.46;100140.37;1715469;83;21037;-68
2022/03/24 03:53:59;;;;;;;159.37;76.10;;;;;;;0.58;75.08;100146.84;1715075;83;21123;-68
2022/03/24 03:56:26;;;;;;;167.13;76.28;;;;;;;0.59;74.82;100155.04;1715160;83;21093;-69
2022/03/24 03:58:53;;;;;;;193.05;83.42;;;;;;;0.59;74.70;100151.59;1716127;81;21250;-68
2022/03/24 04:01:20;;;;;;;184.63;84.35;;;;;;;0.59;74.65;100153.74;1717840;83;21043;-69
2022/03/24 04:03:48;;;;;;;192.20;86.02;;;;;;;0.63;74.68;100150.31;1717904;83;21159;-68
2022/03/24 04:06:15;;;;;;;205.87;85.80;;;;;;;0.76;74.74;100152.94;1717858;83;21513;-68
2022/03/24 04:08:43;;;;;;;186.12;82.80;;;;;;;0.92;74.28;100154.73;1717652;83;21085;-68
2022/03/24 04:11:12;;;;;;;209.65;86.90;;;;;;;1.12;73.81;100146.13;1717598;83;21313;-68
2022/03/24 04:13:42;;;;;;;223.28;88.52;;;;;;;1.38;72.93;100143.55;1717680;83;21053;-68
2022/03/24 04:16:11;;;;;;;206.20;86.32;;;;;;;1.64;71.86;100140.97;1717566;83;21069;-68
2022/03/24 04:18:43;;;;;;;181.45;76.97;;;;;;;1.94;70.71;100144.41;1717614;83;21081;-68
2022/03/24 04:21:10;;;;;;;207.18;84.62;;;;;;;2.20;69.55;100141.30;1717736;83;21190;-69
2022/03/24 04:23:39;;;;;;;188.12;78.37;;;;;;;2.40;68.83;100145.14;1717697;83;21287;-68
2022/03/24 04:26:07;;;;;;;182.45;76.82;;;;;;;2.68;67.61;100140.69;1717804;83;21080;-69
2022/03/24 04:28:33;;;;;;;203.27;80.50;;;;;;;2.68;67.61;100140.69;1717864;83;21048;-70
2022/03/24 04:31:00;;;;;;;190.73;81.30;;;;;;;2.78;67.25;100142.80;1717848;83;21042;-68
2022/03/24 04:33:27;;;;;;;191.82;79.07;;;;;;;2.91;66.76;100144.91;1717843;83;21033;-69
2022/03/24 04:35:53;;;;;;;169.68;72.95;;;;;;;3.18;66.01;100150.84;1717836;83;21097;-70
2022/03/24 04:38:21;;;;;;;163.30;74.17;;;;;;;3.55;64.26;100153.59;1717771;83;21065;-69
2022/03/24 04:40:48;;;;;;;160.85;73.00;;;;;;;3.95;63.00;100153.22;1717896;83;21109;-68
2022/03/24 04:43:15;;;;;;;158.00;70.80;;;;;;;4.33;61.98;100149.82;1717646;83;21032;-69
2022/03/24 04:45:44;;;;;;;154.80;67.70;;;;;;;4.69;60.42;100149.80;1717908;83;21072;-69
2022/03/24 04:48:11;;;;;;;134.57;66.05;;;;;;;5.04;59.05;100148.48;1717704;83;21966;-69
2022/03/24 04:50:38;;;;;;;143.55;65.47;;;;;;;5.36;57.54;100149.73;1739984;82;21564;-69
2022/03/24 04:53:04;;;;;;;141.03;65.25;;;;;;;5.63;55.98;100142.77;1747393;81;21040;-68
2022/03/24 04:55:32;;;;;;;140.43;63.00;;;;;;;5.91;55.69;100149.28;1747671;82;21049;-70
2022/03/24 04:58:00;;;;;;;135.82;60.33;;;;;;;6.15;53.57;100144.10;1747627;81;21048;-68
2022/03/24 05:00:26;;;;;;;116.95;56.20;;;;;;;6.38;53.14;100151.06;1745213;80;21271;-68
2022/03/24 05:02:53;;;;;;;117.25;55.28;;;;;;;6.51;52.53;100144.70;1744935;82;21085;-71
2022/03/24 05:05:21;;;;;;;114.50;55.40;;;;;;;6.64;52.00;100145.74;1744999;82;21057;-69
2022/03/24 05:07:47;;;;;;;105.00;53.33;;;;;;;6.86;51.70;100152.71;1744851;82;21002;-69
2022/03/24 05:10:14;;;;;;;111.08;55.05;;;;;;;7.16;50.61;100149.86;1744927;82;21149;-69
2022/03/24 05:12:41;;;;;;;107.75;53.78;;;;;;;7.42;50.46;100149.70;1744955;82;21136;-68
2022/03/24 05:15:10;;;;;;;103.60;53.55;;;;;;;7.78;49.31;100157.98;1744931;82;21060;-69
2022/03/24 05:17:38;;;;;;;94.75;50.73;;;;;;;8.12;48.48;100161.05;1744922;81;22138;-69
2022/03/24 05:20:08;;;;;;;93.42;50.08;;;;;;;8.39;47.90;100163.81;1745002;82;21620;-69
2022/03/24 05:22:37;;;;;;;93.95;48.95;;;;;;;8.71;46.65;100164.71;1745120;81;21101;-69
2022/03/24 05:25:05;;;;;;;92.00;47.30;;;;;;;8.93;45.48;100162.33;1745071;82;21014;-69
2022/03/24 05:27:33;;;;;;;90.95;47.27;;;;;;;9.18;45.28;100159.83;1744840;82;21030;-68
2022/03/24 05:30:02;;;;;;;96.47;46.80;;;;;;;9.37;44.03;100155.70;1745073;82;21014;-69
2022/03/24 05:32:29;;;;;;;84.62;45.73;;;;;;;9.45;43.60;100160.70;1745057;82;21053;-69
2022/03/24 05:34:58;;;;;;;85.90;45.78;;;;;;;9.58;43.51;100158.55;1744930;82;21065;-69
2022/03/24 05:37:24;;;;;;;81.02;44.65;;;;;;;9.74;43.41;100163.72;1745014;82;21302;-69
2022/03/24 05:39:52;;;;;;;82.70;43.42;;;;;;;9.97;42.81;100165.58;1744785;82;22152;-69
2022/03/24 05:42:18;;;;;;;78.95;42.85;;;;;;;10.20;41.97;100160.83;1744705;82;21124;-70
2022/03/24 05:44:45;;;;;;;76.37;41.92;;;;;;;10.33;41.49;100161.74;1744638;82;21110;-69
2022/03/24 05:47:12;;;;;;;73.80;39.98;;;;;;;10.42;41.21;100171.95;1745109;82;21367;-70
2022/03/24 05:49:40;;;;;;;76.37;39.78;;;;;;;10.49;41.23;100170.84;1732865;82;21221;-69
2022/03/24 05:52:18;;;;;;;69.70;39.33;;;;;;;10.55;40.68;100164.02;1709548;83;21111;-70
2022/03/24 05:54:47;;;;;;;73.40;38.50;;;;;;;10.67;40.66;100164.91;1709507;83;21064;-69
2022/03/24 05:57:13;;;;;;;69.82;37.90;;;;;;;10.78;40.23;100155.73;1709566;83;21094;-71
2022/03/24 05:59:41;;;;;;;68.90;38.40;;;;;;;10.86;40.28;100158.95;1709618;82;21008;-69
2022/03/24 06:02:08;;;;;;;62.88;36.15;;;;;;;11.05;39.99;100148.09;1740452;82;21263;-68
2022/03/24 06:04:35;;;;;;;63.02;35.28;;;;;;;11.18;39.62;100155.08;1744815;82;21058;-68
2022/03/24 06:07:03;;;;;;;77.15;37.05;;;;;;;11.30;38.96;100160.32;1744690;80;21085;-68
2022/03/24 06:09:30;;;;;;;63.48;34.90;;;;;;;11.55;38.59;100162.84;1700105;82;21550;-70
2022/03/24 06:11:56;;;;;;;59.83;34.25;;;;;;;11.74;38.57;100161.63;1744558;82;21030;-69
2022/03/24 06:14:25;;;;;;;61.83;34.08;;;;;;;12.12;37.49;100161.80;1744879;82;21182;-71
2022/03/24 06:16:52;;;;;;;57.83;31.82;;;;;;;12.32;36.59;100164.91;1744649;80;21105;-69
2022/03/24 06:19:19;;;;;;;61.75;33.13;;;;;;;12.37;36.44;100161.13;1744699;82;21767;-68
2022/03/24 06:21:48;;;;;;;56.33;32.83;;;;;;;12.30;36.37;100157.05;1744640;82;21029;-68
2022/03/24 06:24:14;;;;;;;56.15;32.25;;;;;;;12.50;36.11;100156.65;1744711;82;21078;-68
2022/03/24 06:26:41;;;;;;;62.90;32.00;;;;;;;12.69;35.90;100161.48;1744959;82;21893;-70
2022/03/24 06:29:11;;;;;;;70.47;30.37;;;;;;;12.87;35.63;100173.48;1744872;82;21105;-69
2022/03/24 06:31:37;;;;;;;59.08;29.75;;;;;;;12.91;35.33;100168.45;1745076;82;21462;-68
2022/03/24 06:34:04;;;;;;;53.75;30.70;;;;;;;12.97;35.38;100176.94;1744937;82;21498;-68
2022/03/24 06:36:31;;;;;;;45.78;29.48;;;;;;;13.22;34.96;100179.30;1744876;82;21053;-68
2022/03/24 06:38:58;;;;;;;44.83;28.02;;;;;;;13.49;34.34;100169.69;1744535;82;21188;-69
2022/03/24 06:41:24;;;;;;;45.50;27.98;;;;;;;13.61;34.25;100166.91;1744602;82;21030;-69
2022/03/24 06:43:51;;;;;;;43.58;27.00;;;;;;;13.76;34.10;100175.91;1744632;82;21042;-70
2022/03/24 06:46:19;;;;;;;41.15;24.82;;;;;;;13.98;33.90;100171.23;1744581;82;21152;-69
2022/03/24 06:48:51;;;;;;;48.90;26.35;;;;;;;14.26;33.38;100169.81;1744814;82;21061;-69
2022/03/24 06:51:22;;;;;;;44.50;25.70;;;;;;;14.63;33.08;100171.89;1715393;83;21230;-70
2022/03/24 06:53:51;;;;;;;43.35;24.70;;;;;;;14.87;32.41;100166.61;1715199;83;21073;-69
2022/03/24 06:56:18;;;;;;;40.03;23.05;;;;;;;15.01;31.99;100174.30;1715321;83;21001;-69
2022/03/24 06:58:45;;;;;;;34.33;22.52;;;;;;;15.31;31.79;100169.94;1715197;83;21037;-69
2022/03/24 07:01:12;;;;;;;35.13;20.55;;;;;;;15.69;31.15;100172.22;1715359;82;21057;-70
2022/03/24 07:03:38;;;;;;;33.98;18.25;;;;;;;15.92;30.03;100168.74;1715255;83;21223;-69
2022/03/24 07:06:05;;;;;;;28.77;17.23;;;;;;;15.99;29.86;100164.78;1671948;83;21013;-70
2022/03/24 07:08:32;;;;;;;27.85;18.15;;;;;;;15.96;29.66;100168.92;1715268;81;21061;-69
2022/03/24 07:11:00;;;;;;;26.35;16.77;;;;;;;16.02;30.10;100177.87;1715250;83;21033;-70
2022/03/24 07:13:27;;;;;;;30.60;18.90;;;;;;;16.18;29.61;100174.31;1715330;83;21113;-68
2022/03/24 07:15:55;;;;;;;27.35;17.27;;;;;;;16.08;29.25;100169.55;1715075;83;21555;-70
2022/03/24 07:18:22;;;;;;;31.75;17.92;;;;;;;16.06;29.64;100178.08;1715046;83;21659;-69
2022/03/24 07:20:50;;;;;;;29.23;16.40;;;;;;;16.34;29.41;100171.12;1714666;83;21033;-69
2022/03/24 07:23:20;;;;;;;26.05;17.00;;;;;;;16.47;29.11;100169.44;1715228;83;21057;-69
2022/03/24 07:25:46;;;;;;;27.85;16.05;;;;;;;16.74;29.20;100173.98;1740714;82;21589;-68
2022/03/24 07:28:14;;;;;;;28.23;15.58;;;;;;;17.20;28.36;100179.95;1745232;82;22178;-70
2022/03/24 07:30:50;;;;;;;28.07;16.50;;;;;;;17.47;28.02;100169.83;1745281;82;21029;-68
2022/03/24 07:33:14;;;;;;;24.35;15.75;;;;;;;17.57;27.37;100180.72;1744430;82;21030;-68
2022/03/24 07:35:41;;;;;;;23.00;16.07;;;;;;;17.64;27.20;100174.03;1745046;82;21015;-70
2022/03/24 07:38:09;;;;;;;22.65;15.13;;;;;;;17.58;27.18;100184.62;1744913;82;21057;-69
2022/03/24 07:40:36;;;;;;;24.25;14.73;;;;;;;17.49;27.21;100181.72;1744913;82;21233;-69
2022/03/24 07:43:05;;;;;;;23.00;16.05;;;;;;;17.61;27.23;100176.91;1744874;80;21360;-68
2022/03/24 07:45:38;;;;;;;21.30;14.50;;;;;;;17.90;26.89;100175.48;1745390;82;21037;-68
2022/03/24 07:48:25;;;;;;;18.95;13.65;;;;;;;18.05;26.29;100177.13;1744567;82;20994;-69
2022/03/24 07:50:49;;;;;;;22.45;14.73;;;;;;;18.15;26.25;100174.69;1744672;82;21534;-69
2022/03/24 07:53:21;;;;;;;23.92;15.23;;;;;;;18.13;25.72;100176.14;1744820;82;21140;-69
2022/03/24 07:55:51;;;;;;;22.52;14.10;;;;;;;18.16;26.15;100179.92;1745106;82;21017;-70
2022/03/24 07:58:17;;;;;;;22.07;13.60;;;;;;;18.32;25.63;100178.89;1744894;82;21070;-69
2022/03/24 08:00:45;;;;;;;19.07;12.90;;;;;;;18.51;25.82;100180.64;1753996;80;21055;-69
2022/03/24 08:03:16;;;;;;;19.60;13.60;;;;;;;18.58;25.25;100176.59;1761362;81;21503;-69
2022/03/24 08:05:46;;;;;;;19.85;12.03;;;;;;;18.40;25.65;100185.86;1761108;81;21317;-70
2022/03/24 08:08:14;;;;;;;19.75;13.45;;;;;;;18.49;25.23;100176.38;1761483;81;21526;-69
2022/03/24 08:10:46;;;;;;;18.30;11.80;;;;;;;18.62;25.44;100180.76;1761230;81;21082;-70
2022/03/24 08:13:15;;;;;;;19.62;11.20;;;;;;;18.88;24.87;100172.77;1761188;81;21592;-70
2022/03/24 08:15:42;;;;;;;17.52;12.05;;;;;;;19.13;24.29;100168.34;1761231;81;21011;-69
2022/03/24 08:18:11;;;;;;;17.42;11.90;;;;;;;19.34;24.00;100166.78;1761299;81;21156;-70
2022/03/24 08:20:40;;;;;;;19.23;11.50;;;;;;;19.27;24.07;100162.86;1761480;81;21514;-69
2022/03/24 08:23:10;;;;;;;18.07;10.82;;;;;;;19.27;23.81;100164.19;1761798;81;21038;-72
2022/03/24 08:25:38;;;;;;;19.98;10.72;;;;;;;19.35;23.84;100172.51;1761477;81;21105;-69
2022/03/24 08:28:05;;;;;;;21.27;10.03;;;;;;;19.41;23.62;100154.68;1761721;81;21089;-71
2022/03/24 08:30:34;;;;;;;18.70;9.45;;;;;;;19.41;23.22;100161.36;1761410;81;21895;-68
2022/03/24 08:33:01;;;;;;;17.12;9.33;;;;;;;19.34;23.70;100165.45;1761300;81;21000;-70
2022/03/24 08:35:28;;;;;;;15.88;9.25;;;;;;;19.21;23.49;100165.96;1761455;81;21042;-71
2022/03/24 08:37:55;;;;;;;17.35;9.60;;;;;;;19.27;23.73;100166.86;1761359;81;21041;-69
2022/03/24 08:40:23;;;;;;;14.50;9.88;;;;;;;19.68;23.10;100169.65;1761369;81;21014;-69
2022/03/24 08:42:52;;;;;;;16.77;9.85;;;;;;;19.72;23.09;100165.81;1734837;81;21250;-70
2022/03/24 08:45:18;;;;;;;16.02;8.55;;;;;;;19.64;22.97;100159.66;1761386;81;21022;-68
2022/03/24 08:47:45;;;;;;;14.45;8.60;;;;;;;19.42;23.03;100156.41;1761278;81;21090;-70
2022/03/24 08:50:14;;;;;;;14.47;8.78;;;;;;;19.28;23.03;100159.23;1744466;81;21523;-70
2022/03/24 08:52:41;;;;;;;12.93;8.68;;;;;;;19.27;23.37;100156.18;1731288;82;21673;-69
2022/03/24 08:55:11;;;;;;;14.55;8.38;;;;;;;19.20;23.17;100161.11;1731467;82;21194;-70
2022/03/24 08:57:38;;;;;;;16.07;8.93;;;;;;;19.18;23.29;100152.84;1731272;82;21026;-70
2022/03/24 09:00:12;;;;;;;14.85;8.90;;;;;;;19.22;23.41;100159.67;1704830;82;21612;-70
2022/03/24 09:02:37;;;;;;;15.95;8.50;;;;;;;19.28;23.42;100148.56;1744289;82;21022;-70
2022/03/24 09:05:06;;;;;;;13.93;8.68;;;;;;;19.30;23.11;100155.95;1745130;82;21073;-69
2022/03/24 09:07:32;;;;;;;10.85;7.62;;;;;;;19.20;23.41;100149.09;1745208;82;21209;-69
2022/03/24 09:10:00;;;;;;;15.43;8.33;;;;;;;19.19;23.29;100154.57;1744918;82;21033;-69
2022/03/24 09:12:30;;;;;;;19.70;8.03;;;;;;;19.19;23.46;100159.91;1745025;82;21037;-68
2022/03/24 09:14:57;;;;;;;15.95;8.28;;;;;;;19.31;23.31;100167.02;1744943;82;22192;-70
2022/03/24 09:17:24;;;;;;;12.03;8.58;;;;;;;19.30;23.11;100162.63;1744875;82;21576;-70
2022/03/24 09:19:52;;;;;;;15.95;7.87;;;;;;;19.32;22.70;100156.69;1744893;80;21085;-68
2022/03/24 09:22:21;;;;;;;15.85;9.13;;;;;;;19.25;22.77;100145.60;1744780;82;21171;-72
2022/03/24 09:24:48;;;;;;;14.93;8.58;;;;;;;18.88;22.98;100155.42;1744852;82;21080;-70
2022/03/24 09:27:17;;;;;;;16.95;8.50;;;;;;;18.56;22.98;100166.99;1745119;82;21571;-69
2022/03/24 09:29:44;;;;;;;17.17;6.85;;;;;;;18.50;23.08;100162.95;1745217;82;21124;-71
2022/03/24 09:32:12;;;;;;;11.05;8.28;;;;;;;18.58;23.24;100152.59;1723748;82;21117;-70
2022/03/24 09:34:40;;;;;;;14.30;8.03;;;;;;;18.59;23.29;100152.13;1744917;82;21073;-69
2022/03/24 09:37:08;;;;;;;11.22;7.92;;;;;;;18.24;22.99;100164.73;1745006;82;21041;-71
2022/03/24 09:39:35;;;;;;;13.20;8.40;;;;;;;17.97;23.48;100163.48;1745315;80;21533;-69
2022/03/24 09:42:03;;;;;;;13.38;8.45;;;;;;;17.77;24.07;100166.95;1745059;82;21037;-70
2022/03/24 09:44:33;;;;;;;18.25;8.88;;;;;;;17.45;23.98;100156.24;1744956;82;21300;-69
2022/03/24 09:47:00;;;;;;;21.80;7.65;;;;;;;16.94;24.68;100157.67;1744816;82;21037;-68
2022/03/24 09:49:28;;;;;;;12.58;7.17;;;;;;;16.51;25.00;100147.00;1744986;82;21026;-70
2022/03/24 09:51:57;;;;;;;12.37;7.22;;;;;;;16.19;25.47;100148.11;1744975;82;21573;-70
2022/03/24 09:54:25;;;;;;;13.60;6.92;;;;;;;16.18;25.53;100164.53;1745231;82;21062;-70
2022/03/24 09:56:53;;;;;;;16.75;7.03;;;;;;;16.29;25.06;100166.56;1745143;82;21521;-69
2022/03/24 09:59:20;;;;;;;11.60;6.35;;;;;;;16.61;24.65;100165.93;1745114;82;21021;-71
2022/03/24 10:01:47;;;;;;;16.70;7.62;;;;;;;17.10;24.51;100163.36;1756656;81;21085;-70
2022/03/24 10:04:15;;;;;;;11.48;7.33;;;;;;;17.29;23.94;100173.68;1761237;81;21094;-70
2022/03/24 10:07:03;;;;;;;12.82;7.45;;;;;;;17.01;24.31;100167.45;1761429;81;21044;-69
2022/03/24 10:09:37;;;;;;;10.85;6.97;;;;;;;16.56;25.00;100181.28;1761518;81;21039;-71
2022/03/24 10:12:08;;;;;;;11.25;6.65;;;;;;;16.56;25.00;100181.28;1761373;81;21089;-69
2022/03/24 10:14:36;;;;;;;14.80;7.08;;;;;;;16.80;24.50;100164.34;1761835;81;22020;-69
2022/03/24 10:17:11;;;;;;;9.70;6.42;;;;;;;16.85;23.80;100172.03;1761414;81;21050;-70
2022/03/24 10:19:39;;;;;;;11.48;7.12;;;;;;;16.90;23.83;100164.12;1761343;81;21026;-70
2022/03/24 10:22:10;;;;;;;8.88;5.83;;;;;;;16.80;24.07;100164.34;1761309;80;21877;-70
2022/03/24 10:24:45;;;;;;;11.28;6.92;;;;;;;17.12;23.81;100186.26;1761550;81;21092;-70
2022/03/24 10:27:13;;;;;;;15.48;6.97;;;;;;;17.18;23.30;100174.36;1761443;81;21085;-69
2022/03/24 10:29:41;;;;;;;11.90;7.42;;;;;;;17.10;23.67;100166.87;1712072;81;21019;-70
2022/03/24 10:32:14;;;;;;;17.98;7.15;;;;;;;16.94;24.21;100180.28;1761326;81;21117;-68
2022/03/24 10:34:52;;;;;;;12.23;6.97;;;;;;;16.71;24.34;100168.87;1761535;81;21842;-69
2022/03/24 10:37:19;;;;;;;10.00;6.75;;;;;;;16.18;24.90;100174.31;1760475;81;21644;-69
2022/03/24 10:40:06;;;;;;;10.82;7.12;;;;;;;15.78;25.72;100181.94;1761537;81;21026;-69
2022/03/24 10:42:36;;;;;;;12.33;6.50;;;;;;;15.64;25.67;100179.58;1761156;81;21108;-70
2022/03/24 10:45:17;;;;;;;13.45;6.83;;;;;;;15.36;25.94;100164.84;1761359;81;21042;-71
2022/03/24 10:47:56;;;;;;;12.07;6.70;;;;;;;15.25;26.17;100167.64;1761386;81;21810;-70
2022/03/24 10:50:37;;;;;;;14.05;6.50;;;;;;;15.00;26.14;100171.23;1742336;81;21090;-69
2022/03/24 10:53:15;;;;;;;15.32;7.10;;;;;;;14.86;26.47;100168.89;1730827;82;21620;-69
2022/03/24 10:56:09;;;;;;;12.45;6.78;;;;;;;14.92;26.38;100174.80;1731199;82;21125;-69
2022/03/24 10:58:39;;;;;;;16.75;8.28;;;;;;;14.85;26.56;100167.16;1706220;82;21061;-70
2022/03/24 11:01:10;;;;;;;11.68;7.60;;;;;;;15.03;26.49;100175.07;1731011;82;21077;-69
2022/03/24 11:03:38;;;;;;;10.63;6.87;;;;;;;15.08;26.04;100171.69;1706318;82;21053;-70
2022/03/24 11:06:14;;;;;;;13.08;7.58;;;;;;;15.20;25.87;100174.98;1730863;82;21066;-69
2022/03/24 11:08:43;;;;;;;13.60;8.80;;;;;;;15.16;26.00;100170.81;1730946;82;21027;-68
2022/03/24 11:11:13;;;;;;;14.35;8.53;;;;;;;15.45;25.29;100177.59;1731315;82;21110;-70
2022/03/24 11:13:48;;;;;;;14.95;9.20;;;;;;;15.38;25.42;100171.77;1730930;82;21003;-69
2022/03/24 11:16:19;;;;;;;27.20;9.50;;;;;;;15.35;25.40;100168.45;1736588;81;21602;-68
2022/03/24 11:18:49;;;;;;;16.55;8.73;;;;;;;15.30;25.69;100162.92;1761329;81;21602;-69